Orbital elements of FENGYUN 1C DEB
| Launched | 9 May 1999 |
| Flight ended | – |
| Launch site | Taiyuan Space Center, PRC |
| Owner | People's Republic of China |
| NORAD ID | 45526 |
| Date fetched |
Epoch osculation |
Inc. [°] |
Ecc. | RA asc node [hr] |
Arg Peri. [°] |
Mean anom [°] |
Mean motion [rev/day] |
Abs. mag |
| Date fetched |
Epoch osculation |
Inc. [°] |
Ecc. | RA asc node [hr] |
Arg Peri. [°] |
Mean anom [°] |
Mean motion [rev/day] |
Abs. mag |
| 2026 May 03 17:57 | 2026 Apr 30 04:02:54 | 98.7507 | 0.00541 | 13.1578 | 179.2331 | 180.8942 | 14.27095 | – |
| 2026 May 02 17:57 | 2026 Apr 30 04:02:54 | 98.7507 | 0.00541 | 13.1578 | 179.2331 | 180.8942 | 14.27095 | – |
| 2026 May 01 17:56 | 2026 Apr 30 04:02:54 | 98.7507 | 0.00541 | 13.1578 | 179.2331 | 180.8942 | 14.27095 | – |
| 2026 Apr 30 17:56 | 2026 Apr 30 04:02:54 | 98.7507 | 0.00541 | 13.1578 | 179.2331 | 180.8942 | 14.27095 | – |
| 2026 Apr 29 17:57 | 2026 Apr 24 03:20:01 | 98.7496 | 0.00536 | 12.7555 | 196.2374 | 180.8942 | 14.27095 | – |
| 2026 Apr 28 17:56 | 2026 Apr 24 03:20:01 | 98.7496 | 0.00536 | 12.7555 | 196.2374 | 180.8942 | 14.27095 | – |
| 2026 Apr 27 17:58 | 2026 Apr 24 03:20:01 | 98.7496 | 0.00536 | 12.7555 | 196.2374 | 180.8942 | 14.27095 | – |
| 2026 Apr 26 17:58 | 2026 Apr 24 03:20:01 | 98.7496 | 0.00536 | 12.7555 | 196.2374 | 180.8942 | 14.27095 | – |
| 2026 Apr 25 17:58 | 2026 Apr 24 03:20:01 | 98.7496 | 0.00536 | 12.7555 | 196.2374 | 180.8942 | 14.27095 | – |
| 2026 Apr 24 17:59 | 2026 Apr 24 03:20:01 | 98.7496 | 0.00536 | 12.7555 | 196.2374 | 180.8942 | 14.27095 | – |
| 2026 Apr 23 17:57 | 2026 Apr 18 04:17:52 | 98.7504 | 0.00531 | 12.3580 | 213.3420 | 180.8942 | 14.27095 | – |
| 2026 Apr 22 17:57 | 2026 Apr 18 04:17:52 | 98.7504 | 0.00531 | 12.3580 | 213.3420 | 180.8942 | 14.27095 | – |
| 2026 Apr 21 17:57 | 2026 Apr 18 04:17:52 | 98.7504 | 0.00531 | 12.3580 | 213.3420 | 180.8942 | 14.27095 | – |
| 2026 Apr 20 17:57 | 2026 Apr 18 04:17:52 | 98.7504 | 0.00531 | 12.3580 | 213.3420 | 180.8942 | 14.27095 | – |
| 2026 Apr 19 17:58 | 2026 Apr 18 04:17:52 | 98.7504 | 0.00531 | 12.3580 | 213.3420 | 180.8942 | 14.27095 | – |
| 2026 Apr 18 17:56 | 2026 Apr 13 04:49:06 | 98.7508 | 0.00525 | 12.0260 | 227.7713 | 180.8942 | 14.27095 | – |
| 2026 Apr 16 17:57 | 2026 Apr 13 04:49:06 | 98.7508 | 0.00525 | 12.0260 | 227.7713 | 180.8942 | 14.27095 | – |
| 2026 Apr 14 17:57 | 2026 Apr 13 04:49:06 | 98.7508 | 0.00525 | 12.0260 | 227.7713 | 180.8942 | 14.27095 | – |
| 2026 Apr 13 17:57 | 2026 Apr 13 04:49:06 | 98.7508 | 0.00525 | 12.0260 | 227.7713 | 180.8942 | 14.27095 | – |
| 2026 Apr 12 17:57 | 2026 Apr 08 03:39:15 | 98.7505 | 0.00520 | 11.6893 | 242.4740 | 180.8942 | 14.27095 | – |
| 2026 Apr 11 17:57 | 2026 Apr 08 03:39:15 | 98.7505 | 0.00520 | 11.6893 | 242.4740 | 180.8942 | 14.27095 | – |
| 2026 Apr 10 17:58 | 2026 Apr 08 03:39:15 | 98.7505 | 0.00520 | 11.6893 | 242.4740 | 180.8942 | 14.27095 | – |
| 2026 Apr 09 18:01 | 2026 Apr 08 03:39:15 | 98.7505 | 0.00520 | 11.6893 | 242.4740 | 180.8942 | 14.27095 | – |
| 2026 Apr 08 17:57 | 2026 Apr 08 03:39:15 | 98.7505 | 0.00520 | 11.6893 | 242.4740 | 180.8942 | 14.27095 | – |
| 2026 Apr 07 17:57 | 2026 Apr 01 03:21:57 | 98.7521 | 0.00514 | 11.2216 | 263.1613 | 180.8942 | 14.27095 | – |
| 2026 Apr 06 17:57 | 2026 Apr 01 03:21:57 | 98.7521 | 0.00514 | 11.2216 | 263.1613 | 180.8942 | 14.27095 | – |